Time;durP1;ratioP1;P1;durP2;ratioP2;P2;SDS_P1;SDS_P2;PMS_P1;PMS_P2;Temp;Humidity;BMP_temperature;BMP_pressure;BME280_temperature;BME280_humidity;BME280_pressure;Samples;Min_cycle;Max_cycle;Signal;HPM_P1;HPM_P2
2023/03/02 00:01:11;;;;;;;44.27;21.97;;;2.90;75.80;;;;;;5007256;28;20423;-59
2023/03/02 00:03:39;;;;;;;49.03;22.63;;;2.90;76.40;;;;;;5002790;28;20458;-57
2023/03/02 00:06:06;;;;;;;45.40;22.00;;;2.90;77.20;;;;;;5006215;28;20666;-58
2023/03/02 00:08:32;;;;;;;43.73;20.90;;;2.90;77.90;;;;;;5008822;28;20936;-58
2023/03/02 00:11:00;;;;;;;44.67;21.27;;;2.90;78.50;;;;;;5002258;28;20438;-58
2023/03/02 00:13:27;;;;;;;46.77;22.30;;;2.90;79.10;;;;;;5006733;28;20941;-58
2023/03/02 00:15:53;;;;;;;50.47;22.93;;;2.90;80.00;;;;;;5007757;28;20497;-57
2023/03/02 00:18:19;;;;;;;54.30;22.70;;;2.90;80.60;;;;;;5000873;28;20443;-58
2023/03/02 00:20:44;;;;;;;58.47;22.93;;;2.90;81.40;;;;;;5004323;28;20194;-57
2023/03/02 00:23:10;;;;;;;49.27;22.43;;;2.90;82.20;;;;;;5005032;28;20673;-58
2023/03/02 00:25:36;;;;;;;49.87;23.90;;;2.80;82.80;;;;;;5003381;28;20197;-57
2023/03/02 00:28:01;;;;;;;52.60;24.30;;;2.80;83.70;;;;;;5001778;28;20169;-58
2023/03/02 00:30:27;;;;;;;51.50;22.30;;;2.80;84.60;;;;;;5003474;28;20674;-58
2023/03/02 00:32:52;;;;;;;48.23;23.43;;;2.80;85.20;;;;;;5005897;28;20191;-58
2023/03/02 00:35:18;;;;;;;55.13;23.57;;;2.80;85.80;;;;;;5011510;28;20196;-59
2023/03/02 00:37:44;;;;;;;52.97;24.80;;;2.80;86.50;;;;;;5010211;28;20209;-57
2023/03/02 00:40:10;;;;;;;51.67;23.13;;;2.80;87.60;;;;;;5010511;28;20191;-58
2023/03/02 00:42:36;;;;;;;51.00;21.77;;;2.80;88.10;;;;;;5008794;28;20172;-58
2023/03/02 00:45:04;;;;;;;52.13;25.10;;;2.70;88.60;;;;;;5006769;28;20470;-57
2023/03/02 00:47:32;;;;;;;58.00;25.00;;;2.70;89.00;;;;;;5016343;28;20989;-57
2023/03/02 00:49:58;;;;;;;48.00;21.40;;;2.70;90.20;;;;;;5008626;28;20525;-58
2023/03/02 00:52:23;;;;;;;49.07;24.13;;;2.70;90.50;;;;;;5009646;28;20527;-58
2023/03/02 00:54:49;;;;;;;51.30;24.17;;;2.60;90.70;;;;;;5007158;28;20197;-58
2023/03/02 00:57:15;;;;;;;60.30;24.77;;;2.60;91.10;;;;;;5006399;28;20192;-58
2023/03/02 00:59:40;;;;;;;55.73;24.90;;;2.60;91.20;;;;;;5005954;28;20691;-58
2023/03/02 01:02:06;;;;;;;50.73;24.03;;;2.60;91.30;;;;;;5005742;28;20176;-58
2023/03/02 01:04:38;;;;;;;57.63;25.03;;;2.60;91.20;;;;;;5006146;28;20233;-59
2023/03/02 01:07:13;;;;;;;53.77;22.50;;;2.60;91.10;;;;;;5008372;28;20172;-57
2023/03/02 01:09:40;;;;;;;59.60;27.43;;;2.60;91.00;;;;;;5006536;28;20797;-57
2023/03/02 01:12:10;;;;;;;52.33;24.27;;;2.60;91.30;;;;;;5005251;28;20416;-58
2023/03/02 01:14:41;;;;;;;60.63;25.60;;;2.60;91.20;;;;;;5007959;28;20978;-59
2023/03/02 01:17:08;;;;;;;50.73;25.30;;;2.50;91.70;;;;;;5022743;28;20434;-56
2023/03/02 01:19:33;;;;;;;57.50;25.87;;;2.50;92.30;;;;;;5009489;28;20437;-57
2023/03/02 01:21:59;;;;;;;55.97;26.17;;;2.50;92.60;;;;;;5005324;28;20423;-57
2023/03/02 01:24:25;;;;;;;68.27;24.87;;;2.50;92.90;;;;;;5008787;28;20234;-56
2023/03/02 01:26:51;;;;;;;59.73;25.00;;;2.50;93.00;;;;;;5007585;28;20456;-58
2023/03/02 01:29:16;;;;;;;55.13;23.47;;;2.40;93.10;;;;;;5006160;28;20494;-57
2023/03/02 01:31:42;;;;;;;67.70;26.87;;;2.50;93.30;;;;;;5002331;28;20648;-57
2023/03/02 01:34:08;;;;;;;59.30;25.07;;;2.40;93.40;;;;;;5010302;28;20215;-57
2023/03/02 01:36:33;;;;;;;57.00;25.23;;;2.40;93.30;;;;;;5008744;28;20661;-57
2023/03/02 01:39:00;;;;;;;59.17;26.50;;;2.40;93.50;;;;;;5005976;28;20187;-57
2023/03/02 01:41:26;;;;;;;55.37;26.07;;;2.40;93.70;;;;;;5007220;28;20241;-58
2023/03/02 01:43:52;;;;;;;56.43;24.40;;;2.40;93.90;;;;;;5006456;28;21354;-56
2023/03/02 01:46:25;;;;;;;60.17;26.70;;;2.40;94.10;;;;;;5003744;28;20516;-57
2023/03/02 01:49:13;;;;;;;54.13;24.83;;;2.40;93.90;;;;;;5007900;28;21015;-58
2023/03/02 01:51:44;;;;;;;59.93;26.90;;;2.40;94.10;;;;;;5004141;28;20430;-57
2023/03/02 01:54:16;;;;;;;66.27;27.40;;;2.40;94.60;;;;;;5007771;28;20513;-57
2023/03/02 01:56:44;;;;;;;54.73;26.57;;;2.40;94.50;;;;;;5005864;28;20450;-57
2023/03/02 01:59:15;;;;;;;55.77;25.00;;;2.30;94.20;;;;;;5006491;28;20430;-57
2023/03/02 02:01:44;;;;;;;57.50;25.93;;;2.30;94.60;;;;;;5004912;28;20442;-58
2023/03/02 02:04:10;;;;;;;62.27;26.00;;;2.30;94.80;;;;;;5004550;28;20468;-58
2023/03/02 02:06:46;;;;;;;65.27;27.97;;;2.30;95.20;;;;;;5008375;28;20943;-57
2023/03/02 02:09:14;;;;;;;70.37;26.67;;;2.30;95.40;;;;;;5005275;28;21188;-57
2023/03/02 02:11:42;;;;;;;54.27;23.87;;;2.30;95.70;;;;;;5001448;28;20424;-58
2023/03/02 02:14:08;;;;;;;62.30;24.97;;;2.20;96.00;;;;;;5007297;28;20545;-57
2023/03/02 02:16:35;;;;;;;61.40;26.80;;;2.20;96.40;;;;;;5006587;28;20514;-58
2023/03/02 02:19:02;;;;;;;63.47;25.80;;;2.20;96.70;;;;;;5005584;28;20725;-57
2023/03/02 02:21:29;;;;;;;64.13;25.93;;;2.20;97.30;;;;;;4999913;28;20428;-59
2023/03/02 02:24:08;;;;;;;60.07;24.97;;;2.20;97.40;;;;;;5001409;28;20459;-57
2023/03/02 02:26:45;;;;;;;61.33;25.90;;;2.20;97.20;;;;;;5007567;28;20436;-58
2023/03/02 02:29:14;;;;;;;58.40;24.87;;;2.20;97.40;;;;;;5002651;28;20430;-57
2023/03/02 02:31:46;;;;;;;54.47;24.90;;;2.10;97.50;;;;;;5006909;28;20426;-57
2023/03/02 02:34:21;;;;;;;57.80;24.50;;;2.10;98.00;;;;;;5008698;28;20446;-57
2023/03/02 02:36:48;;;;;;;57.60;24.50;;;2.00;98.60;;;;;;5006883;28;20453;-58
2023/03/02 02:39:19;;;;;;;57.03;24.53;;;2.00;99.10;;;;;;5002056;28;20433;-57
2023/03/02 02:41:48;;;;;;;54.13;23.30;;;2.00;98.90;;;;;;5004138;28;20428;-57
2023/03/02 02:44:16;;;;;;;64.60;24.80;;;2.00;99.10;;;;;;5004444;28;20517;-57
2023/03/02 02:46:43;;;;;;;58.77;26.20;;;2.00;98.80;;;;;;5004555;28;20445;-58
2023/03/02 02:49:24;;;;;;;57.97;23.40;;;2.00;98.60;;;;;;5005551;28;20434;-58
2023/03/02 02:51:50;;;;;;;56.00;25.17;;;2.00;98.40;;;;;;5002497;28;20509;-58
2023/03/02 02:54:18;;;;;;;65.47;26.43;;;2.00;98.20;;;;;;5004833;28;20562;-57
2023/03/02 02:56:45;;;;;;;54.07;25.40;;;2.00;97.80;;;;;;5006297;28;20695;-56
2023/03/02 02:59:17;;;;;;;56.03;24.70;;;1.90;98.40;;;;;;5000517;28;20474;-57
2023/03/02 03:01:44;;;;;;;62.30;24.70;;;1.90;99.00;;;;;;5001593;28;20782;-57
2023/03/02 03:04:13;;;;;;;49.80;23.37;;;1.90;99.00;;;;;;5006444;28;20463;-57
2023/03/02 03:06:49;;;;;;;54.00;24.43;;;1.90;99.20;;;;;;5008038;28;20451;-56
2023/03/02 03:09:15;;;;;;;51.73;24.60;;;1.80;99.80;;;;;;5006850;28;20955;-56
2023/03/02 03:11:43;;;;;;;51.67;24.50;;;1.80;99.80;;;;;;5010191;28;20503;-56
2023/03/02 03:14:12;;;;;;;51.53;26.03;;;1.80;99.90;;;;;;5003938;28;20203;-57
2023/03/02 03:16:40;;;;;;;60.67;26.37;;;1.80;99.90;;;;;;5007131;28;20431;-57
2023/03/02 03:19:15;;;;;;;54.43;24.13;;;1.80;99.90;;;;;;5016804;28;20480;-58
2023/03/02 03:21:41;;;;;;;64.50;27.23;;;1.70;99.90;;;;;;5009657;28;20961;-56
2023/03/02 03:24:07;;;;;;;57.00;24.07;;;1.70;99.90;;;;;;5004748;28;20478;-58
2023/03/02 03:26:33;;;;;;;54.80;24.83;;;1.80;99.90;;;;;;5003696;28;20171;-57
2023/03/02 03:28:59;;;;;;;57.40;26.30;;;1.80;99.90;;;;;;5004141;28;20182;-58
2023/03/02 03:31:26;;;;;;;55.87;25.10;;;1.80;99.90;;;;;;5004781;28;20497;-58
2023/03/02 03:33:53;;;;;;;55.80;24.50;;;1.80;99.90;;;;;;5003863;28;20467;-57
2023/03/02 03:36:19;;;;;;;52.00;23.37;;;1.80;99.90;;;;;;5008793;28;20505;-57
2023/03/02 03:38:45;;;;;;;50.23;23.30;;;1.80;99.70;;;;;;5001181;28;20464;-57
2023/03/02 03:41:10;;;;;;;54.53;24.67;;;1.80;99.40;;;;;;4999896;28;20181;-57
2023/03/02 03:43:36;;;;;;;57.87;26.13;;;1.80;99.00;;;;;;5001581;28;20221;-58
2023/03/02 03:46:01;;;;;;;54.93;24.80;;;1.80;98.60;;;;;;5005098;28;20261;-57
2023/03/02 03:48:27;;;;;;;48.63;24.00;;;1.80;98.70;;;;;;5001537;28;20219;-57
2023/03/02 03:50:52;;;;;;;53.30;25.23;;;1.80;98.70;;;;;;5002112;28;20668;-57
2023/03/02 03:53:18;;;;;;;63.97;27.33;;;1.80;98.20;;;;;;5006131;28;20181;-57
2023/03/02 03:55:44;;;;;;;53.10;25.13;;;1.70;98.60;;;;;;5008261;28;20578;-58
2023/03/02 03:58:09;;;;;;;55.83;25.83;;;1.80;99.00;;;;;;5008855;28;20167;-57
2023/03/02 04:00:35;;;;;;;50.93;23.80;;;1.70;99.60;;;;;;5001542;28;20239;-58
2023/03/02 04:03:01;;;;;;;59.53;27.50;;;1.70;99.20;;;;;;5007484;28;20168;-57
2023/03/02 04:05:27;;;;;;;53.33;25.60;;;1.70;99.20;;;;;;5004112;28;20199;-57
2023/03/02 04:07:53;;;;;;;52.27;26.03;;;1.70;99.30;;;;;;5006369;28;21858;-56
2023/03/02 04:10:18;;;;;;;55.07;25.47;;;1.70;99.60;;;;;;5006283;28;20529;-57
2023/03/02 04:12:44;;;;;;;59.40;25.90;;;1.70;99.60;;;;;;5012418;28;20708;-57
2023/03/02 04:15:14;;;;;;;55.27;25.60;;;1.70;99.70;;;;;;5009698;28;20535;-56
2023/03/02 04:17:39;;;;;;;52.40;25.13;;;1.70;99.40;;;;;;5005997;28;20234;-57
2023/03/02 04:20:09;;;;;;;60.20;26.23;;;1.60;99.90;;;;;;5006990;28;20839;-58
2023/03/02 04:22:35;;;;;;;54.47;25.53;;;1.60;99.90;;;;;;5004989;28;20167;-56
2023/03/02 04:25:01;;;;;;;54.57;24.77;;;1.60;99.90;;;;;;5009333;28;20471;-57
2023/03/02 04:27:26;;;;;;;54.43;24.53;;;1.60;99.90;;;;;;5001674;28;20168;-57
2023/03/02 04:29:52;;;;;;;55.87;24.00;;;1.60;99.90;;;;;;5008496;28;20496;-56
2023/03/02 04:32:18;;;;;;;65.03;26.10;;;1.50;99.90;;;;;;5009999;28;20167;-57
2023/03/02 04:34:44;;;;;;;59.63;25.17;;;1.50;99.90;;;;;;5009593;28;20215;-56
2023/03/02 04:37:10;;;;;;;56.07;23.20;;;1.50;99.90;;;;;;5004096;28;21269;-57
2023/03/02 04:39:35;;;;;;;58.07;26.87;;;1.50;99.90;;;;;;5011310;28;20187;-57
2023/03/02 04:42:01;;;;;;;55.73;25.70;;;1.60;99.90;;;;;;5010213;28;20184;-57
2023/03/02 04:44:27;;;;;;;52.97;26.20;;;1.60;99.90;;;;;;5008066;28;20212;-56
2023/03/02 04:46:53;;;;;;;66.53;27.93;;;1.50;99.90;;;;;;5008290;28;20258;-57
2023/03/02 04:49:19;;;;;;;60.97;26.00;;;1.60;99.90;;;;;;5008063;28;20651;-57
2023/03/02 04:51:47;;;;;;;85.73;27.17;;;1.50;99.90;;;;;;5002859;28;20183;-53
2023/03/02 04:54:24;;;;;;;58.23;25.50;;;1.50;99.90;;;;;;4998617;28;20437;-57
2023/03/02 04:56:50;;;;;;;55.90;25.33;;;1.50;99.90;;;;;;5009425;28;20793;-57
2023/03/02 04:59:18;;;;;;;57.97;24.90;;;1.50;99.90;;;;;;4999619;28;20462;-59
2023/03/02 05:01:45;;;;;;;65.17;26.13;;;1.40;99.90;;;;;;5001460;28;20445;-58
2023/03/02 05:04:11;;;;;;;60.87;26.63;;;1.40;99.90;;;;;;5000734;28;20840;-58
2023/03/02 05:06:37;;;;;;;61.13;25.47;;;1.40;99.90;;;;;;5001252;28;20561;-57
2023/03/02 05:09:03;;;;;;;57.23;27.43;;;1.50;99.90;;;;;;4999556;28;20521;-59
2023/03/02 05:11:29;;;;;;;58.83;25.23;;;1.50;99.90;;;;;;5000337;28;20638;-59
2023/03/02 05:13:58;;;;;;;60.80;27.20;;;1.60;99.90;;;;;;5001227;28;20444;-59
2023/03/02 05:16:27;;;;;;;61.87;27.20;;;1.70;99.90;;;;;;4993060;28;20509;-59
2023/03/02 05:18:54;;;;;;;55.87;26.57;;;1.70;99.90;;;;;;5003492;28;20445;-59
2023/03/02 05:21:20;;;;;;;71.63;26.93;;;1.80;99.90;;;;;;5011996;28;20450;-57
2023/03/02 05:23:46;;;;;;;65.07;27.17;;;1.80;99.90;;;;;;5000460;28;20486;-60
2023/03/02 05:26:13;;;;;;;59.20;26.23;;;1.70;99.90;;;;;;4999040;28;20475;-58
2023/03/02 05:28:39;;;;;;;53.03;26.17;;;1.60;99.90;;;;;;5003923;28;20439;-59
2023/03/02 05:31:05;;;;;;;52.13;23.83;;;1.70;99.90;;;;;;5002517;28;20797;-53
2023/03/02 05:33:31;;;;;;;61.30;27.70;;;1.60;99.90;;;;;;5008923;28;20437;-56
2023/03/02 05:35:57;;;;;;;59.87;25.00;;;1.60;99.90;;;;;;5000510;28;20457;-58
2023/03/02 05:38:22;;;;;;;68.93;27.40;;;1.60;99.90;;;;;;5002609;28;20223;-58
2023/03/02 05:40:48;;;;;;;60.93;27.47;;;1.60;99.90;;;;;;4999545;28;20454;-58
2023/03/02 05:43:17;;;;;;;56.33;25.00;;;1.60;99.90;;;;;;5002043;28;20211;-58
2023/03/02 05:45:43;;;;;;;56.40;25.77;;;1.70;99.90;;;;;;5000882;28;20294;-58
2023/03/02 05:48:11;;;;;;;58.93;25.73;;;1.70;99.90;;;;;;4999839;28;20430;-54
2023/03/02 05:50:36;;;;;;;58.50;25.43;;;1.70;99.90;;;;;;5003217;28;20871;-57
2023/03/02 05:53:02;;;;;;;58.67;27.37;;;1.70;99.90;;;;;;5003295;28;20512;-57
2023/03/02 05:55:28;;;;;;;50.83;24.37;;;1.60;99.90;;;;;;5002086;28;20696;-59
2023/03/02 05:57:54;;;;;;;59.17;28.03;;;1.60;99.90;;;;;;4999232;28;20267;-57
2023/03/02 06:00:20;;;;;;;57.77;27.20;;;1.60;99.90;;;;;;4989038;28;20422;-57
2023/03/02 06:02:46;;;;;;;67.70;29.10;;;1.60;99.90;;;;;;5001014;28;20200;-58
2023/03/02 06:05:16;;;;;;;59.17;27.17;;;1.60;99.90;;;;;;5006834;28;20913;-57
2023/03/02 06:07:42;;;;;;;58.90;26.20;;;1.60;99.90;;;;;;5007988;28;20249;-58
2023/03/02 06:10:09;;;;;;;62.63;26.73;;;1.60;99.90;;;;;;5000845;28;20434;-57
2023/03/02 06:12:35;;;;;;;61.60;27.20;;;1.60;99.90;;;;;;5001581;28;20494;-56
2023/03/02 06:15:02;;;;;;;56.73;26.13;;;1.60;99.90;;;;;;5007299;28;20459;-57
2023/03/02 06:17:29;;;;;;;54.90;25.27;;;1.60;99.90;;;;;;5020596;28;20521;-57
2023/03/02 06:19:54;;;;;;;57.60;25.20;;;1.60;99.90;;;;;;4997184;28;20443;-57
2023/03/02 06:22:20;;;;;;;62.27;27.73;;;1.60;99.90;;;;;;5009875;28;20175;-56
2023/03/02 06:24:45;;;;;;;58.00;25.87;;;1.60;99.90;;;;;;5007566;28;20744;-56
2023/03/02 06:27:12;;;;;;;53.27;24.77;;;1.60;99.90;;;;;;5004657;28;20195;-57
2023/03/02 06:29:38;;;;;;;60.00;25.73;;;1.60;99.90;;;;;;4996826;28;20741;-58
2023/03/02 06:32:04;;;;;;;59.67;24.73;;;1.60;99.90;;;;;;5000493;28;20427;-58
2023/03/02 06:34:30;;;;;;;64.10;29.17;;;1.60;99.90;;;;;;5017761;28;20240;-56
2023/03/02 06:36:55;;;;;;;67.03;25.90;;;1.50;99.90;;;;;;5002229;28;21156;-57
2023/03/02 06:39:21;;;;;;;63.77;26.90;;;1.60;99.90;;;;;;5007934;28;20180;-57
2023/03/02 06:41:48;;;;;;;61.90;28.33;;;1.60;99.90;;;;;;5006247;28;20274;-57
2023/03/02 06:44:16;;;;;;;54.57;26.57;;;1.60;99.90;;;;;;5005726;28;20462;-57
2023/03/02 06:46:41;;;;;;;57.53;24.67;;;1.60;99.90;;;;;;5006093;28;20443;-56
2023/03/02 06:49:07;;;;;;;62.80;26.60;;;1.50;99.90;;;;;;5002674;28;20980;-57
2023/03/02 06:51:34;;;;;;;54.37;25.30;;;1.60;99.90;;;;;;5000967;28;20183;-56
2023/03/02 06:53:59;;;;;;;62.93;26.97;;;1.60;99.90;;;;;;5001808;28;20463;-57
2023/03/02 06:56:25;;;;;;;63.17;25.57;;;1.60;99.90;;;;;;5002725;28;21193;-56
2023/03/02 06:58:51;;;;;;;61.43;26.17;;;1.60;99.90;;;;;;5004359;28;20184;-57
2023/03/02 07:01:17;;;;;;;58.30;25.30;;;1.60;99.90;;;;;;5006509;28;20443;-55
2023/03/02 07:03:42;;;;;;;61.30;26.10;;;1.60;99.90;;;;;;5004953;28;20212;-58
2023/03/02 07:06:11;;;;;;;59.37;26.30;;;1.50;99.90;;;;;;4998873;28;20203;-59
2023/03/02 07:08:36;;;;;;;66.00;28.07;;;1.50;99.90;;;;;;4997675;28;20182;-58
2023/03/02 07:11:10;;;;;;;69.47;27.43;;;1.50;99.90;;;;;;5000054;28;20931;-57
2023/03/02 07:13:37;;;;;;;61.53;24.53;;;1.50;99.90;;;;;;5000569;28;20868;-57
2023/03/02 07:16:11;;;;;;;56.67;25.43;;;1.50;99.90;;;;;;5006292;28;21120;-57
2023/03/02 07:18:37;;;;;;;55.10;24.30;;;1.40;99.90;;;;;;5009069;28;20415;-58
2023/03/02 07:21:03;;;;;;;63.00;26.60;;;1.50;99.90;;;;;;5000516;28;20524;-58
2023/03/02 07:23:29;;;;;;;58.70;27.83;;;1.40;99.90;;;;;;5008640;28;20853;-58
2023/03/02 07:25:55;;;;;;;60.67;26.50;;;1.50;99.90;;;;;;5005462;28;20466;-58
2023/03/02 07:28:23;;;;;;;64.97;27.77;;;1.40;99.90;;;;;;5004435;28;20181;-57
2023/03/02 07:30:49;;;;;;;67.53;25.63;;;1.50;99.90;;;;;;5009393;28;20426;-59
2023/03/02 07:33:14;;;;;;;56.27;25.80;;;1.50;99.90;;;;;;5008560;28;20468;-58
2023/03/02 07:35:40;;;;;;;57.90;28.10;;;1.50;99.90;;;;;;5003956;28;20484;-58
2023/03/02 07:38:06;;;;;;;58.20;25.83;;;1.50;99.90;;;;;;5009115;28;20179;-58
2023/03/02 07:40:32;;;;;;;55.20;26.70;;;1.60;99.90;;;;;;5014271;28;20190;-58
2023/03/02 07:42:58;;;;;;;58.73;26.03;;;1.50;99.90;;;;;;5014961;28;20194;-58
2023/03/02 07:45:25;;;;;;;61.30;27.53;;;1.60;99.90;;;;;;5011039;28;20466;-56
2023/03/02 07:47:50;;;;;;;64.83;28.47;;;1.50;99.90;;;;;;5014110;28;20271;-59
2023/03/02 07:50:16;;;;;;;58.67;24.10;;;1.50;99.90;;;;;;5012716;28;20514;-58
2023/03/02 07:52:42;;;;;;;65.83;27.10;;;1.60;99.90;;;;;;5011103;28;20659;-58
2023/03/02 07:55:08;;;;;;;57.77;26.50;;;1.60;99.90;;;;;;5015133;28;20196;-58
2023/03/02 07:57:34;;;;;;;62.93;26.47;;;1.70;99.90;;;;;;5004062;28;20190;-57
2023/03/02 07:59:59;;;;;;;57.97;25.80;;;1.70;99.90;;;;;;5013163;28;20446;-59
2023/03/02 08:02:25;;;;;;;67.60;27.90;;;1.70;99.90;;;;;;5008031;28;20238;-58
2023/03/02 08:04:51;;;;;;;57.60;27.00;;;1.70;99.90;;;;;;5014406;28;20703;-57
2023/03/02 08:07:17;;;;;;;63.10;28.03;;;1.80;99.90;;;;;;5010563;28;20179;-58
2023/03/02 08:09:43;;;;;;;55.83;24.87;;;1.80;99.90;;;;;;5013924;28;20187;-59
2023/03/02 08:12:09;;;;;;;58.10;26.50;;;1.80;99.30;;;;;;5012261;28;20439;-57
2023/03/02 08:14:35;;;;;;;63.70;27.10;;;1.80;99.30;;;;;;5011398;28;20210;-58
2023/03/02 08:17:01;;;;;;;58.30;27.10;;;1.80;99.60;;;;;;5014716;28;20184;-58
2023/03/02 08:19:26;;;;;;;56.60;25.17;;;1.90;99.90;;;;;;5009604;28;20529;-59
2023/03/02 08:21:52;;;;;;;57.10;25.10;;;1.90;99.70;;;;;;5013143;28;20934;-58
2023/03/02 08:24:18;;;;;;;58.90;25.87;;;1.90;99.40;;;;;;5014348;28;20210;-58
2023/03/02 08:26:43;;;;;;;62.77;27.23;;;1.90;99.30;;;;;;5011374;28;20185;-58
2023/03/02 08:29:09;;;;;;;56.37;26.13;;;1.90;99.40;;;;;;5011638;28;20181;-58
2023/03/02 08:31:35;;;;;;;55.03;25.67;;;2.00;98.80;;;;;;5014005;28;20225;-59
2023/03/02 08:34:01;;;;;;;57.73;27.30;;;2.00;98.40;;;;;;5013739;28;20210;-57
2023/03/02 08:36:26;;;;;;;61.13;24.83;;;2.00;97.70;;;;;;5008034;28;20837;-56
2023/03/02 08:38:53;;;;;;;68.13;28.10;;;2.00;96.70;;;;;;5004096;28;20747;-58
2023/03/02 08:41:21;;;;;;;59.27;26.00;;;1.90;96.50;;;;;;5015062;28;20177;-57
2023/03/02 08:43:47;;;;;;;59.77;26.03;;;1.90;96.60;;;;;;5015169;28;20458;-57
2023/03/02 08:46:16;;;;;;;54.73;25.27;;;1.90;97.30;;;;;;5008708;28;20451;-57
2023/03/02 08:48:42;;;;;;;58.83;23.47;;;2.00;97.50;;;;;;5015132;28;20447;-58
2023/03/02 08:51:13;;;;;;;68.83;27.40;;;2.00;97.70;;;;;;5009423;28;20462;-58
2023/03/02 08:53:41;;;;;;;59.07;26.50;;;2.00;97.60;;;;;;5007796;28;20884;-58
2023/03/02 08:56:34;;;;;;;59.27;25.00;;;2.00;97.50;;;;;;5008744;28;20478;-58
2023/03/02 08:59:03;;;;;;;65.37;24.73;;;2.00;97.20;;;;;;5005068;28;20486;-58
2023/03/02 09:01:31;;;;;;;53.40;23.53;;;2.10;97.30;;;;;;5009569;28;20420;-58
2023/03/02 09:03:59;;;;;;;56.17;24.80;;;2.10;97.00;;;;;;5008617;28;20471;-56
2023/03/02 09:06:26;;;;;;;54.37;23.73;;;2.10;96.50;;;;;;5008695;28;20439;-58
2023/03/02 09:08:52;;;;;;;58.17;25.27;;;2.10;96.80;;;;;;5010397;28;21081;-57
2023/03/02 09:11:18;;;;;;;64.17;27.00;;;2.00;96.70;;;;;;5007585;28;20439;-57
2023/03/02 09:13:43;;;;;;;60.23;25.33;;;2.00;97.00;;;;;;5005790;28;20610;-59
2023/03/02 09:16:09;;;;;;;62.37;26.50;;;2.10;97.70;;;;;;5007809;28;20677;-58
2023/03/02 09:18:36;;;;;;;61.27;25.27;;;2.10;97.20;;;;;;5006645;28;20664;-60
2023/03/02 09:21:02;;;;;;;65.33;27.13;;;2.10;96.90;;;;;;5004649;28;20435;-58
2023/03/02 09:23:28;;;;;;;62.13;26.20;;;2.10;97.10;;;;;;5010951;28;20478;-58
2023/03/02 09:25:54;;;;;;;60.00;26.00;;;2.10;96.60;;;;;;5007942;28;20443;-58
2023/03/02 09:28:22;;;;;;;47.77;25.03;;;2.10;96.50;;;;;;5008624;28;20498;-58
2023/03/02 09:30:51;;;;;;;53.93;25.50;;;2.10;96.10;;;;;;5002734;28;20432;-58
2023/03/02 09:33:18;;;;;;;54.10;25.07;;;2.10;96.00;;;;;;5009295;28;20465;-58
2023/03/02 09:35:45;;;;;;;61.60;24.83;;;2.10;96.10;;;;;;5004090;28;20839;-58
2023/03/02 09:38:14;;;;;;;55.80;26.50;;;2.10;97.10;;;;;;5011282;28;20499;-58
2023/03/02 09:40:52;;;;;;;70.13;28.93;;;2.10;97.70;;;;;;5003183;28;20447;-58
2023/03/02 09:43:45;;;;;;;58.57;26.80;;;2.10;97.70;;;;;;5007747;28;20946;-58
2023/03/02 09:46:28;;;;;;;59.60;26.40;;;2.10;97.60;;;;;;5001060;28;20461;-57
2023/03/02 09:49:01;;;;;;;62.70;25.43;;;2.10;96.80;;;;;;5001036;28;21092;-58
2023/03/02 09:51:39;;;;;;;57.33;26.07;;;2.10;96.30;;;;;;5008974;28;20943;-58
2023/03/02 09:54:12;;;;;;;61.00;24.77;;;2.10;96.80;;;;;;5001591;28;20451;-58
2023/03/02 09:56:58;;;;;;;51.87;24.93;;;2.10;97.00;;;;;;5008702;28;20442;-59
2023/03/02 09:59:28;;;;;;;61.40;27.30;;;2.20;96.60;;;;;;5007979;28;21015;-58
2023/03/02 10:02:03;;;;;;;53.57;25.30;;;2.20;95.20;;;;;;5006505;28;21243;-58
2023/03/02 10:04:37;;;;;;;64.20;27.10;;;2.20;94.80;;;;;;5007277;28;20462;-58
2023/03/02 10:07:34;;;;;;;56.10;25.60;;;2.20;94.70;;;;;;5006745;28;20432;-57
2023/03/02 10:10:23;;;;;;;66.87;27.83;;;2.20;94.40;;;;;;5013317;28;20433;-60
2023/03/02 10:13:10;;;;;;;57.57;25.80;;;2.20;92.90;;;;;;5020483;28;20526;-60
2023/03/02 10:16:14;;;;;;;57.17;27.07;;;2.20;93.00;;;;;;5023281;28;20812;-58
2023/03/02 10:18:42;;;;;;;59.93;24.13;;;2.20;93.80;;;;;;4992173;28;20794;-58
2023/03/02 10:21:37;;;;;;;57.50;26.17;;;2.30;94.00;;;;;;5004520;28;20424;-57
2023/03/02 10:24:16;;;;;;;52.70;23.73;;;2.40;93.10;;;;;;5002259;28;20455;-53
2023/03/02 10:27:06;;;;;;;56.10;23.67;;;2.50;92.10;;;;;;5004887;28;20446;-54
2023/03/02 10:29:42;;;;;;;52.73;23.47;;;2.60;91.10;;;;;;4994905;28;20450;-53
2023/03/02 10:32:24;;;;;;;54.83;24.37;;;2.60;89.50;;;;;;5000638;28;20490;-53
2023/03/02 10:34:51;;;;;;;56.83;24.00;;;2.60;90.30;;;;;;5003829;28;20493;-54
2023/03/02 10:37:21;;;;;;;65.13;27.10;;;2.70;91.00;;;;;;5009082;28;20430;-54
2023/03/02 10:39:47;;;;;;;58.97;26.87;;;2.70;90.90;;;;;;5006797;28;20441;-53
2023/03/02 10:42:19;;;;;;;55.87;25.50;;;2.70;90.70;;;;;;5000635;28;20435;-54
2023/03/02 10:44:49;;;;;;;55.43;25.40;;;2.70;89.30;;;;;;5008369;28;20467;-53
2023/03/02 10:47:32;;;;;;;57.90;25.97;;;2.70;87.90;;;;;;5013712;28;20497;-53
2023/03/02 10:49:58;;;;;;;57.43;26.80;;;2.80;88.80;;;;;;4999998;28;20428;-54
2023/03/02 10:52:28;;;;;;;56.10;23.73;;;2.80;87.60;;;;;;4996372;28;20443;-53
2023/03/02 10:55:12;;;;;;;51.77;23.90;;;2.80;86.30;;;;;;5006256;28;20222;-57
2023/03/02 10:57:40;;;;;;;52.73;26.30;;;2.80;87.60;;;;;;5003962;28;20877;-59
2023/03/02 11:00:24;;;;;;;54.00;25.47;;;2.80;87.40;;;;;;4999252;28;20858;-57
2023/03/02 11:02:54;;;;;;;57.10;26.47;;;2.80;87.90;;;;;;5006039;28;20438;-57
2023/03/02 11:05:30;;;;;;;66.30;24.70;;;2.90;90.00;;;;;;5002156;28;20537;-57
2023/03/02 11:08:02;;;;;;;64.87;27.40;;;2.90;87.90;;;;;;5003766;28;20462;-58
2023/03/02 11:10:38;;;;;;;55.93;26.70;;;2.90;86.70;;;;;;5001319;28;20811;-57
2023/03/02 11:13:28;;;;;;;53.27;25.43;;;2.90;89.00;;;;;;5006042;28;20446;-57
2023/03/02 11:16:00;;;;;;;58.67;25.27;;;3.00;88.30;;;;;;5005544;28;20513;-57
2023/03/02 11:19:04;;;;;;;54.10;23.20;;;3.10;86.80;;;;;;5000922;28;20439;-57
2023/03/02 11:21:35;;;;;;;64.53;25.60;;;3.10;85.10;;;;;;4919650;29;20423;-58
2023/03/02 11:24:10;;;;;;;64.70;26.90;;;3.20;82.90;;;;;;4991435;28;20508;-59
2023/03/02 11:26:45;;;;;;;62.27;26.27;;;3.20;82.10;;;;;;4997852;28;20424;-58
2023/03/02 11:29:29;;;;;;;64.93;26.50;;;3.20;81.70;;;;;;5003379;28;20438;-55
2023/03/02 11:32:16;;;;;;;63.30;25.80;;;3.30;81.60;;;;;;5004535;28;20451;-55
2023/03/02 11:34:56;;;;;;;60.57;26.50;;;3.30;81.60;;;;;;5001311;28;20492;-58
2023/03/02 11:37:33;;;;;;;55.43;24.87;;;3.30;81.50;;;;;;5002149;28;20439;-58
2023/03/02 11:40:22;;;;;;;60.10;27.63;;;3.40;80.70;;;;;;4996418;28;20939;-58
2023/03/02 11:42:49;;;;;;;58.17;25.63;;;3.40;79.50;;;;;;4999821;28;20428;-54
2023/03/02 11:45:26;;;;;;;61.43;25.70;;;3.40;78.80;;;;;;5000484;28;20466;-58
2023/03/02 11:48:00;;;;;;;58.03;27.23;;;3.40;78.80;;;;;;5006285;28;20505;-56
2023/03/02 11:50:25;;;;;;;76.87;26.93;;;3.50;78.50;;;;;;4997184;28;20436;-57
2023/03/02 11:52:59;;;;;;;57.07;25.67;;;3.50;78.20;;;;;;5003708;28;20432;-56
2023/03/02 11:55:33;;;;;;;61.37;26.53;;;3.50;77.50;;;;;;5006461;28;20196;-58
2023/03/02 11:58:01;;;;;;;59.73;25.67;;;3.60;77.50;;;;;;5005080;28;20779;-57
2023/03/02 12:00:40;;;;;;;59.57;26.17;;;3.50;77.50;;;;;;5002846;28;20477;-58
2023/03/02 12:03:15;;;;;;;55.40;25.27;;;3.60;79.20;;;;;;4998501;28;20497;-58
2023/03/02 12:05:51;;;;;;;61.73;26.07;;;3.60;78.40;;;;;;5005526;28;20991;-59
2023/03/02 12:08:20;;;;;;;60.00;26.27;;;3.60;78.30;;;;;;4997244;28;20458;-61
2023/03/02 12:11:04;;;;;;;57.27;27.57;;;3.60;78.70;;;;;;4996086;28;20446;-57
2023/03/02 12:13:31;;;;;;;59.83;26.33;;;3.60;78.40;;;;;;4998240;28;20443;-59
2023/03/02 12:15:57;;;;;;;62.40;27.67;;;3.60;77.40;;;;;;5001598;28;21012;-60
2023/03/02 12:18:23;;;;;;;62.73;25.70;;;3.70;76.50;;;;;;4999242;28;20514;-58
2023/03/02 12:21:01;;;;;;;62.70;27.60;;;3.70;76.30;;;;;;5003226;28;20444;-58
2023/03/02 12:23:28;;;;;;;54.63;25.30;;;3.70;76.30;;;;;;5006038;28;20554;-57
2023/03/02 12:26:05;;;;;;;55.00;26.90;;;3.70;75.90;;;;;;5005534;28;20505;-57
2023/03/02 12:28:37;;;;;;;58.83;25.80;;;3.70;76.30;;;;;;5010749;28;20442;-56
2023/03/02 12:31:12;;;;;;;65.00;25.23;;;3.70;77.00;;;;;;5001276;28;21014;-60
2023/03/02 12:33:46;;;;;;;61.60;25.23;;;3.70;77.50;;;;;;5003082;28;20847;-57
2023/03/02 12:36:17;;;;;;;56.93;26.33;;;3.80;76.90;;;;;;5007608;28;20481;-57
2023/03/02 12:38:51;;;;;;;70.37;26.30;;;3.80;76.50;;;;;;5010682;28;20438;-56
2023/03/02 12:41:17;;;;;;;60.83;26.10;;;3.80;76.60;;;;;;5005491;28;20434;-58
2023/03/02 12:44:06;;;;;;;61.47;25.43;;;3.90;78.20;;;;;;5005640;28;21045;-58
2023/03/02 12:46:35;;;;;;;53.23;24.60;;;3.90;76.20;;;;;;4999271;28;20279;-59